createdAt,value
2022-11-30T00:01:16.041Z,100825.13
2022-11-30T00:03:42.731Z,100819.84
2022-11-30T00:06:15.079Z,100824.38
2022-11-30T00:08:41.804Z,100826.88
2022-11-30T00:11:10.190Z,100826.13
2022-11-30T00:13:36.899Z,100821.69
2022-11-30T00:16:04.019Z,100821.34
2022-11-30T00:18:30.752Z,100815.69
2022-11-30T00:21:01.923Z,100816.56
2022-11-30T00:23:36.424Z,100817.81
2022-11-30T00:26:04.855Z,100824.63
2022-11-30T00:28:32.525Z,100819.59
2022-11-30T00:31:08.473Z,100832.28
2022-11-30T00:33:35.799Z,100838.25
2022-11-30T00:36:05.375Z,100834.31
2022-11-30T00:38:32.881Z,100831.94
2022-11-30T00:41:00.450Z,100830.03
2022-11-30T00:43:27.747Z,100828.63
2022-11-30T00:45:55.384Z,100823.13
2022-11-30T00:48:22.037Z,100822.09
2022-11-30T00:50:49.972Z,100810.63
2022-11-30T00:53:17.421Z,100819.47
2022-11-30T00:55:44.458Z,100811.00
2022-11-30T00:58:11.948Z,100803.06
2022-11-30T01:00:40.970Z,100801.22
2022-11-30T01:03:07.564Z,100806.63
2022-11-30T01:05:34.514Z,100805.09
2022-11-30T01:08:06.280Z,100808.38
2022-11-30T01:10:38.025Z,100809.00
2022-11-30T01:13:05.184Z,100809.66
2022-11-30T01:15:35.654Z,100804.22
2022-11-30T01:18:02.267Z,100795.41
2022-11-30T01:20:28.807Z,100801.94
2022-11-30T01:22:56.021Z,100801.94
2022-11-30T01:25:23.427Z,100795.16
2022-11-30T01:27:51.097Z,100788.34
2022-11-30T01:30:18.432Z,100788.09
2022-11-30T01:32:44.986Z,100788.50
2022-11-30T01:35:11.542Z,100792.16
2022-11-30T01:37:38.102Z,100792.88
2022-11-30T01:40:05.191Z,100791.66
2022-11-30T01:42:33.080Z,100800.06
2022-11-30T01:45:02.362Z,100797.56
2022-11-30T01:47:32.555Z,100794.16
2022-11-30T01:50:08.668Z,100791.38
2022-11-30T01:52:38.593Z,100782.69
2022-11-30T01:55:16.902Z,100784.09
2022-11-30T01:57:57.149Z,100791.91
2022-11-30T02:00:24.249Z,100800.06
2022-11-30T02:03:00.593Z,100796.03
2022-11-30T02:05:28.139Z,100801.47
2022-11-30T02:07:55.153Z,100802.97
2022-11-30T02:10:34.579Z,100808.88
2022-11-30T02:13:21.321Z,100797.69
2022-11-30T02:16:12.262Z,100803.97
2022-11-30T02:19:03.479Z,100808.53
2022-11-30T02:21:53.124Z,100808.03
2022-11-30T02:24:51.218Z,100801.19
2022-11-30T02:27:36.547Z,100807.75
2022-11-30T02:30:08.806Z,100797.81
2022-11-30T02:32:42.905Z,100800.47
2022-11-30T02:35:10.925Z,100797.19
2022-11-30T02:37:38.551Z,100803.22
2022-11-30T02:40:10.447Z,100791.38
2022-11-30T02:42:36.985Z,100796.56
2022-11-30T02:45:04.375Z,100799.97
2022-11-30T02:48:07.387Z,100788.88
2022-11-30T02:50:40.652Z,100790.75
2022-11-30T02:53:09.924Z,100791.53
2022-11-30T02:55:36.657Z,100792.91
2022-11-30T02:58:03.413Z,100799.31
2022-11-30T03:00:29.958Z,100797.69
2022-11-30T03:02:56.500Z,100794.16
2022-11-30T03:05:23.240Z,100800.97
2022-11-30T03:07:49.842Z,100792.50
2022-11-30T03:10:16.447Z,100797.53
2022-11-30T03:12:43.028Z,100800.22
2022-11-30T03:15:09.968Z,100808.25
2022-11-30T03:17:36.511Z,100813.16
2022-11-30T03:20:03.318Z,100812.28
2022-11-30T03:22:29.973Z,100814.19
2022-11-30T03:24:56.492Z,100814.19
2022-11-30T03:27:23.092Z,100817.31
2022-11-30T03:29:49.753Z,100822.50
2022-11-30T03:32:16.276Z,100827.66
2022-11-30T03:34:42.792Z,100824.75
2022-11-30T03:37:09.354Z,100821.84
2022-11-30T03:39:35.892Z,100821.63
2022-11-30T03:42:02.479Z,100819.59
2022-11-30T03:44:29.961Z,100815.81
2022-11-30T03:46:56.621Z,100818.84
2022-11-30T03:49:23.138Z,100811.53
2022-11-30T03:51:49.729Z,100814.91
2022-11-30T03:54:16.303Z,100815.06
2022-11-30T03:56:42.820Z,100811.53
2022-11-30T03:59:09.447Z,100806.75
2022-11-30T04:01:36.977Z,100811.78
2022-11-30T04:04:03.727Z,100811.41
2022-11-30T04:06:30.283Z,100813.28
2022-11-30T04:08:56.820Z,100809.88
2022-11-30T04:11:23.392Z,100810.03
2022-11-30T04:13:49.926Z,100813.53
2022-11-30T04:16:16.571Z,100814.81
2022-11-30T04:18:43.162Z,100805.22
2022-11-30T04:21:10.917Z,100812.66
2022-11-30T04:23:39.594Z,100814.56
2022-11-30T04:26:08.849Z,100807.25
2022-11-30T04:28:35.438Z,100806.22
2022-11-30T04:31:02.888Z,100803.97
2022-11-30T04:33:30.051Z,100801.69
2022-11-30T04:35:59.324Z,100806.25
2022-11-30T04:38:26.308Z,100800.81
2022-11-30T04:40:53.311Z,100808.53
2022-11-30T04:43:21.333Z,100810.28
2022-11-30T04:45:48.766Z,100814.56
2022-11-30T04:48:16.599Z,100812.03
2022-11-30T04:50:43.503Z,100809.66
2022-11-30T04:53:10.596Z,100818.06
2022-11-30T04:55:38.320Z,100816.81
2022-11-30T04:58:05.753Z,100814.53
2022-11-30T05:00:32.787Z,100829.03
2022-11-30T05:02:59.316Z,100823.00
2022-11-30T05:05:25.917Z,100819.34
2022-11-30T05:07:57.581Z,100824.88
2022-11-30T05:10:25.210Z,100831.69
2022-11-30T05:12:51.960Z,100827.00
2022-11-30T05:15:19.147Z,100829.41
2022-11-30T05:17:45.681Z,100816.81
2022-11-30T05:20:12.249Z,100820.84
2022-11-30T05:22:38.970Z,100820.34
2022-11-30T05:25:05.891Z,100827.13
2022-11-30T05:27:32.436Z,100832.16
2022-11-30T05:29:59.017Z,100832.06
2022-11-30T05:32:25.565Z,100840.09
2022-11-30T05:34:52.372Z,100844.53
2022-11-30T05:37:19.889Z,100846.00
2022-11-30T05:39:46.477Z,100841.47
2022-11-30T05:42:13.005Z,100841.97
2022-11-30T05:44:39.601Z,100835.69
2022-11-30T05:47:06.309Z,100847.53
2022-11-30T05:49:32.890Z,100848.78
2022-11-30T05:51:59.451Z,100847.28
2022-11-30T05:54:26.024Z,100853.56
2022-11-30T05:56:55.090Z,100849.53
2022-11-30T05:59:22.585Z,100859.09
2022-11-30T06:01:49.295Z,100853.31
2022-11-30T06:04:15.914Z,100862.75
2022-11-30T06:06:42.595Z,100865.16
2022-11-30T06:09:09.224Z,100866.38
2022-11-30T06:11:35.903Z,100862.63
2022-11-30T06:14:02.531Z,100868.41
2022-11-30T06:16:29.115Z,100875.31
2022-11-30T06:18:55.682Z,100870.03
2022-11-30T06:21:24.684Z,100872.31
2022-11-30T06:23:52.718Z,100864.63
2022-11-30T06:26:19.352Z,100866.22
2022-11-30T06:28:48.557Z,100859.81
2022-11-30T08:39:17.040Z,100881.09
2022-11-30T08:41:43.606Z,100886.72
2022-11-30T08:44:10.127Z,100884.81
2022-11-30T08:46:53.436Z,100871.72
2022-11-30T08:49:23.179Z,100873.00
2022-11-30T08:54:42.770Z,100872.47
2022-11-30T08:57:09.534Z,100881.53
2022-11-30T08:59:36.106Z,100872.34
2022-11-30T09:02:02.860Z,100870.06
2022-11-30T09:04:29.431Z,100864.66
2022-11-30T09:06:59.051Z,100868.16
2022-11-30T09:09:25.928Z,100866.66
2022-11-30T09:11:52.566Z,100864.88
2022-11-30T09:14:19.159Z,100864.41
2022-11-30T09:16:45.713Z,100871.72
2022-11-30T09:19:12.310Z,100865.66
2022-11-30T10:37:15.231Z,100811.31
2022-11-30T10:39:57.587Z,100818.50
2022-11-30T10:43:05.845Z,100816.00
2022-11-30T10:45:33.418Z,100817.28
2022-11-30T10:48:06.796Z,100820.66
2022-11-30T10:50:33.988Z,100826.94
2022-11-30T10:53:00.944Z,100831.13
2022-11-30T10:55:31.487Z,100832.66
2022-11-30T10:58:05.168Z,100832.50
2022-11-30T11:00:31.814Z,100845.25
2022-11-30T11:02:58.557Z,100839.34
2022-11-30T11:05:28.025Z,100838.94
2022-11-30T11:08:18.613Z,100841.34
2022-11-30T11:10:47.940Z,100839.19
2022-11-30T11:13:18.448Z,100840.59
2022-11-30T11:16:04.645Z,100838.94
2022-11-30T11:18:36.380Z,100837.84
2022-11-30T11:21:16.623Z,100838.25
2022-11-30T11:23:44.591Z,100843.78
2022-11-30T11:26:20.130Z,100850.19
2022-11-30T11:28:52.391Z,100851.06
2022-11-30T11:31:47.356Z,100848.06
2022-11-30T11:34:31.758Z,100850.56
2022-11-30T11:37:14.423Z,100854.34
2022-11-30T11:39:40.968Z,100848.53
2022-11-30T11:42:22.180Z,100851.56
2022-11-30T11:45:20.514Z,100847.28
2022-11-30T11:47:49.126Z,100847.41
2022-11-30T11:50:57.718Z,100854.56
2022-11-30T11:53:15.305Z,100860.63
2022-11-30T11:55:43.442Z,100862.38
2022-11-30T11:58:18.553Z,100864.41
2022-11-30T12:00:47.603Z,100855.81
2022-11-30T12:03:38.718Z,100865.66
2022-11-30T12:06:17.223Z,100865.41
2022-11-30T12:08:55.172Z,100859.63
2022-11-30T12:11:28.166Z,100863.16
2022-11-30T12:13:54.755Z,100866.19
2022-11-30T12:16:33.276Z,100871.50
2022-11-30T12:19:11.714Z,100870.59
2022-11-30T12:22:14.775Z,100872.22
2022-11-30T12:25:05.913Z,100870.97
2022-11-30T12:28:04.352Z,100872.00
2022-11-30T12:30:42.864Z,100865.94
2022-11-30T12:33:26.491Z,100865.69
2022-11-30T12:36:01.850Z,100869.97
2022-11-30T12:38:41.401Z,100877.38
2022-11-30T12:41:31.513Z,100874.47
2022-11-30T12:44:20.140Z,100875.47
2022-11-30T12:46:47.102Z,100873.78
2022-11-30T12:49:23.640Z,100874.69
2022-11-30T12:52:24.994Z,100867.53
2022-11-30T12:55:25.566Z,100879.97
2022-11-30T12:58:05.577Z,100868.16
2022-11-30T13:01:23.208Z,100867.88
2022-11-30T13:04:09.544Z,100871.41
2022-11-30T13:06:53.929Z,100869.13
2022-11-30T13:09:34.489Z,100875.16
2022-11-30T13:12:29.421Z,100875.31
2022-11-30T13:15:00.748Z,100874.31
2022-11-30T13:17:27.596Z,100881.88
2022-11-30T13:19:55.048Z,100870.06
2022-11-30T13:22:59.048Z,100875.56
2022-11-30T13:28:42.811Z,100876.50
2022-11-30T13:31:34.314Z,100879.00
2022-11-30T13:34:01.004Z,100860.16
2022-11-30T13:36:31.044Z,100870.91
2022-11-30T13:39:22.988Z,100866.81
2022-11-30T13:41:53.313Z,100874.47
2022-11-30T13:44:24.882Z,100864.13
2022-11-30T13:46:53.314Z,100873.97
2022-11-30T13:49:24.205Z,100870.91
2022-11-30T13:52:13.582Z,100867.88
2022-11-30T13:54:43.265Z,100869.91
2022-11-30T13:57:30.111Z,100866.03
2022-11-30T14:00:02.342Z,100869.53
2022-11-30T14:02:36.489Z,100866.56
2022-11-30T18:55:26.324Z,100888.22
2022-11-30T18:57:52.963Z,100894.53
2022-11-30T19:00:20.117Z,100890.91
2022-11-30T19:02:48.359Z,100893.13
2022-11-30T19:05:31.482Z,100886.66
2022-11-30T19:08:13.894Z,100887.06
2022-11-30T19:10:40.840Z,100894.59
2022-11-30T19:13:07.953Z,100895.75
2022-11-30T19:15:39.579Z,100901.25
2022-11-30T19:18:07.031Z,100902.75
2022-11-30T19:20:42.815Z,100898.19
2022-11-30T19:23:09.363Z,100901.44
2022-11-30T19:25:35.980Z,100910.28
2022-11-30T19:28:02.563Z,100910.28
2022-11-30T19:30:29.199Z,100908.25
2022-11-30T19:32:56.008Z,100906.16
2022-11-30T19:35:23.167Z,100909.78
2022-11-30T19:37:51.948Z,100903.75
2022-11-30T19:40:18.705Z,100916.72
2022-11-30T19:42:45.475Z,100913.91
2022-11-30T19:45:12.083Z,100917.47
2022-11-30T19:47:38.818Z,100920.59
2022-11-30T19:50:05.747Z,100925.34
2022-11-30T19:52:32.307Z,100916.78
2022-11-30T19:54:58.841Z,100922.84
2022-11-30T19:57:25.496Z,100920.94
2022-11-30T19:59:52.023Z,100921.81
2022-11-30T20:02:18.662Z,100926.53
2022-11-30T20:04:45.466Z,100925.34
2022-11-30T20:07:13.446Z,100931.84
2022-11-30T20:09:40.090Z,100929.00
2022-11-30T20:12:06.966Z,100926.25
2022-11-30T20:14:33.520Z,100928.88
2022-11-30T20:17:00.077Z,100927.72
2022-11-30T20:19:26.734Z,100927.13
2022-11-30T20:21:53.326Z,100922.09
2022-11-30T20:24:19.879Z,100924.78
2022-11-30T20:26:46.699Z,100925.06
2022-11-30T20:29:15.608Z,100928.75
2022-11-30T20:31:43.387Z,100934.25
2022-11-30T20:34:10.373Z,100936.50
2022-11-30T20:36:37.925Z,100934.88
2022-11-30T20:39:05.621Z,100931.28
2022-11-30T20:41:33.963Z,100937.91
2022-11-30T20:44:00.748Z,100927.41
2022-11-30T20:46:32.842Z,100930.56
2022-11-30T20:49:00.290Z,100932.44
2022-11-30T20:51:31.297Z,100929.22
2022-11-30T20:54:00.814Z,100924.03
2022-11-30T20:56:27.447Z,100928.03
2022-11-30T20:58:54.051Z,100928.34
2022-11-30T21:01:22.735Z,100928.94
2022-11-30T21:03:49.685Z,100927.00
2022-11-30T21:06:16.453Z,100928.34
2022-11-30T21:08:43.605Z,100926.81
2022-11-30T21:11:16.354Z,100928.34
2022-11-30T21:13:45.215Z,100927.75
2022-11-30T21:16:13.686Z,100930.56
2022-11-30T21:18:42.951Z,100935.06
2022-11-30T21:21:19.063Z,100925.34
2022-11-30T21:23:46.482Z,100924.78
2022-11-30T21:26:22.121Z,100932.44
2022-11-30T21:28:50.426Z,100931.44
2022-11-30T21:31:17.097Z,100928.34
2022-11-30T21:33:50.977Z,100936.88
2022-11-30T21:36:19.846Z,100931.44
2022-11-30T21:38:46.440Z,100935.47
2022-11-30T21:41:14.220Z,100931.63
2022-11-30T21:43:41.496Z,100929.53
2022-11-30T21:46:17.046Z,100935.75
2022-11-30T21:48:47.116Z,100931.75
2022-11-30T21:51:21.975Z,100929.81
2022-11-30T21:53:50.828Z,100928.59
2022-11-30T21:56:20.184Z,100928.03
2022-11-30T21:58:48.112Z,100924.38
2022-11-30T22:01:27.378Z,100926.53
2022-11-30T22:03:55.778Z,100919.00
2022-11-30T22:06:24.036Z,100923.56
2022-11-30T22:08:52.856Z,100924.72
2022-11-30T22:11:21.541Z,100932.13
2022-11-30T22:13:52.949Z,100925.06
2022-11-30T22:16:21.351Z,100924.78
2022-11-30T22:18:48.613Z,100930.56
2022-11-30T22:21:17.814Z,100934.53
2022-11-30T22:23:47.117Z,100933.34
2022-11-30T22:26:34.225Z,100925.81
2022-11-30T22:29:11.923Z,100926.53
2022-11-30T22:31:40.990Z,100926.81
2022-11-30T22:34:07.851Z,100916.69
2022-11-30T22:36:37.457Z,100924.31
2022-11-30T22:39:09.362Z,100921.22
2022-11-30T22:41:36.651Z,100921.34
2022-11-30T22:44:03.500Z,100919.44
2022-11-30T22:46:32.668Z,100920.06
2022-11-30T22:49:03.649Z,100920.06
2022-11-30T22:51:31.997Z,100922.16
2022-11-30T22:53:59.467Z,100911.53
2022-11-30T22:56:32.061Z,100912.97
2022-11-30T22:59:00.930Z,100912.81
2022-11-30T23:01:31.402Z,100908.44
2022-11-30T23:04:05.869Z,100908.44
2022-11-30T23:06:33.715Z,100923.31
2022-11-30T23:09:00.777Z,100912.97
2022-11-30T23:11:29.133Z,100918.94
2022-11-30T23:13:55.763Z,100912.69
2022-11-30T23:16:22.428Z,100914.16
2022-11-30T23:18:50.765Z,100916.25
2022-11-30T23:21:30.465Z,100919.19
2022-11-30T23:24:00.190Z,100913.56
2022-11-30T23:26:29.127Z,100914.44
2022-11-30T23:28:59.504Z,100917.72
2022-11-30T23:31:34.422Z,100923.78
2022-11-30T23:34:05.137Z,100921.22
2022-11-30T23:36:33.173Z,100921.91
2022-11-30T23:39:07.927Z,100927.09
2022-11-30T23:41:34.857Z,100927.81
2022-11-30T23:44:01.803Z,100920.75
2022-11-30T23:46:28.568Z,100925.50
2022-11-30T23:48:55.776Z,100923.28
2022-11-30T23:51:22.865Z,100923.91
2022-11-30T23:53:49.416Z,100917.28
2022-11-30T23:56:17.522Z,100921.44
2022-11-30T23:58:44.178Z,100926.78
